Date,TemperatureHighF,TemperatureAvgF,TemperatureLowF,DewpointHighF,DewpointAvgF,DewpointLowF,HumidityHigh,HumidityAvg,HumidityLow,PressureMaxIn,PressureMinIn,WindSpeedMaxMPH,WindSpeedAvgMPH,GustSpeedMaxMPH,PrecipitationSumIn
2013-1-1,16.4,8.2,2.5,8.7,2.2,-1.5,92,77,61,30.42,30.30,4,1,6,0.00
2013-1-2,25.0,14.7,2.9,20.9,9.5,-0.3,88,80,68,30.36,30.20,8,1,10,0.00
2013-1-3,22.0,17.5,9.2,16.2,12.5,5.3,84,80,75,30.44,30.33,6,2,8,0.00
2013-1-4,31.4,18.0,7.3,23.6,13.8,4.1,91,84,72,30.41,30.28,5,1,13,0.00
2013-1-5,35.6,25.6,10.1,32.3,22.9,7.7,93,89,80,30.35,30.04,5,1,8,0.11
2013-1-6,33.0,19.5,11.0,29.8,15.3,8.4,92,84,78,30.45,30.04,6,2,9,0.01
2013-1-7,37.8,26.5,9.6,28.0,21.1,7.3,92,80,64,30.43,30.18,10,3,15,0.01
2013-1-8,38.4,32.6,20.6,32.5,28.0,18.3,92,83,77,30.22,30.08,10,4,16,0.01
2013-1-9,40.1,32.4,21.2,31.9,27.2,19.0,92,82,59,30.60,30.10,8,2,11,0.00
2013-1-10,36.5,27.8,18.3,35.5,26.3,16.4,96,94,92,30.60,29.92,5,1,8,0.52
2013-1-11,50.8,43.5,35.9,48.2,42.2,35.1,100,95,85,29.92,29.70,10,4,15,0.08
2013-1-12,51.4,33.6,19.7,46.6,28.0,16.8,91,80,69,30.14,29.72,8,4,12,0.00
2013-1-13,19.8,14.8,7.8,18.4,9.5,2.9,96,79,70,30.41,30.02,7,3,11,0.00
2013-1-14,23.6,10.3,0.5,13.1,5.1,-2.5,89,80,58,30.62,30.41,3,0,5,0.01
2013-1-15,28.5,13.5,2.2,17.5,8.2,-0.8,90,80,59,30.58,30.26,5,0,6,0.00
2013-1-16,34.7,24.9,6.9,32.1,20.0,4.1,93,82,69,30.26,29.97,6,1,9,0.00
2013-1-17,31.4,23.6,15.3,28.8,15.3,9.8,90,71,53,30.53,30.20,8,2,12,0.00
2013-1-18,43.6,32.9,17.0,34.7,26.4,13.9,89,77,68,30.54,29.99,11,4,14,0.00
2013-1-19,48.7,38.3,18.5,37.7,30.5,7.4,84,73,57,30.16,29.83,14,3,27,0.01
2013-1-20,18.2,12.4,7.3,8.1,2.8,0.3,77,65,51,30.47,30.16,12,4,15,0.00
2013-1-21,10.9,4.4,-0.2,5.7,-4.0,-8.9,84,68,56,30.47,30.33,9,5,13,0.00
2013-1-22,11.6,4.1,-5.0,-0.4,-5.2,-11.2,78,65,54,30.57,30.46,6,2,10,0.00
2013-1-23,22.4,13.3,7.2,14.3,1.3,-99.9,85,69,62,30.56,30.26,11,-47,17,0.00
2013-1-24,19.7,9.9,0.8,10.5,1.2,-6.4,75,67,57,30.81,30.46,8,2,12,0.00
2013-1-25,32.8,22.0,14.5,20.0,12.9,6.8,86,69,53,30.45,30.09,10,5,18,0.00
2013-1-26,27.4,18.1,5.2,15.7,9.0,1.7,86,68,49,30.54,30.36,6,2,9,0.00
2013-1-27,35.3,28.7,22.7,34.3,24.1,15.0,96,83,67,30.45,29.93,9,6,15,0.15
2013-1-28,45.3,40.5,35.4,44.5,39.0,34.3,98,95,84,30.05,29.79,7,2,9,0.11
2013-1-29,58.9,49.6,35.0,57.4,48.7,34.2,100,97,94,29.78,29.52,12,3,15,0.68
2013-1-30,34.8,26.8,14.3,34.0,25.6,11.4,97,95,88,29.82,29.39,8,4,13,0.25
2013-1-31,14.6,6.7,-2.4,11.9,2.9,-7.0,92,84,80,30.40,29.82,8,5,13,0.00